createdAt,value
2022-12-20T00:02:02.690Z,9.80
2022-12-20T00:04:29.608Z,8.58
2022-12-20T00:06:56.449Z,9.73
2022-12-20T00:09:23.595Z,9.49
2022-12-20T00:11:55.548Z,9.04
2022-12-20T00:14:22.539Z,8.44
2022-12-20T00:16:50.486Z,9.15
2022-12-20T00:19:18.725Z,9.39
2022-12-20T00:21:45.941Z,8.69
2022-12-20T00:24:12.929Z,8.52
2022-12-20T00:26:40.730Z,9.45
2022-12-20T00:29:18.937Z,9.44
2022-12-20T00:31:56.125Z,9.31
2022-12-20T00:34:27.102Z,9.75
2022-12-20T00:36:56.203Z,8.66
2022-12-20T00:39:25.265Z,9.56
2022-12-20T00:41:52.281Z,9.33
2022-12-20T00:44:19.116Z,8.63
2022-12-20T00:46:46.411Z,8.54
2022-12-20T00:49:17.262Z,9.05
2022-12-20T00:51:51.062Z,9.16
2022-12-20T00:54:21.786Z,9.13
2022-12-20T00:56:50.386Z,9.14
2022-12-20T00:59:17.392Z,8.71
2022-12-20T01:01:45.037Z,9.26
2022-12-20T01:04:13.777Z,9.86
2022-12-20T01:06:43.311Z,9.12
2022-12-20T01:09:14.405Z,9.75
2022-12-20T01:11:41.619Z,9.82
2022-12-20T01:14:12.652Z,9.62
2022-12-20T01:16:41.589Z,8.63
2022-12-20T01:19:11.040Z,9.77
2022-12-20T01:21:40.392Z,8.78
2022-12-20T01:24:07.911Z,9.68
2022-12-20T01:26:38.081Z,9.43
2022-12-20T01:29:10.010Z,8.77
2022-12-20T01:31:38.826Z,9.32
2022-12-20T01:34:10.922Z,8.79
2022-12-20T01:36:41.649Z,8.86
2022-12-20T01:39:14.925Z,9.21
2022-12-20T01:41:52.684Z,9.42
2022-12-20T01:44:56.522Z,9.92
2022-12-20T01:47:25.737Z,9.91
2022-12-20T01:49:55.915Z,9.91
2022-12-20T01:52:29.453Z,9.83
2022-12-20T01:55:05.935Z,8.79
2022-12-20T01:57:42.470Z,9.90
2022-12-20T02:00:12.859Z,9.35
2022-12-20T02:02:44.663Z,8.60
2022-12-20T02:05:12.008Z,8.90
2022-12-20T02:07:44.744Z,8.80
2022-12-20T02:10:12.928Z,9.55
2022-12-20T02:12:46.212Z,9.13
2022-12-20T02:15:35.589Z,9.95
2022-12-20T02:18:19.810Z,8.70
2022-12-20T02:21:12.973Z,9.23
2022-12-20T02:24:12.268Z,8.68
2022-12-20T02:27:02.206Z,8.87
2022-12-20T02:29:35.775Z,9.55
2022-12-20T02:32:12.429Z,9.84
2022-12-20T02:34:44.499Z,9.89
2022-12-20T02:37:16.995Z,8.71
2022-12-20T02:39:47.500Z,9.05
2022-12-20T02:42:18.684Z,9.29
2022-12-20T02:44:53.504Z,8.75
2022-12-20T02:47:27.535Z,9.85
2022-12-20T02:49:55.845Z,9.48
2022-12-20T02:52:26.968Z,9.07
2022-12-20T02:54:55.565Z,9.14
2022-12-20T02:57:28.970Z,9.82
2022-12-20T03:00:01.731Z,9.14
2022-12-20T03:02:33.879Z,9.85
2022-12-20T03:05:02.372Z,9.38
2022-12-20T03:07:33.910Z,8.99
2022-12-20T03:10:00.980Z,9.56
2022-12-20T03:12:32.073Z,9.08
2022-12-20T03:15:03.395Z,8.63
2022-12-20T03:17:38.280Z,8.75
2022-12-20T03:20:15.457Z,9.26
2022-12-20T03:22:55.632Z,9.08
2022-12-20T03:25:22.650Z,8.75
2022-12-20T03:27:49.631Z,9.11
2022-12-20T03:30:21.795Z,9.29
2022-12-20T03:33:10.013Z,9.94
2022-12-20T03:35:42.276Z,9.82
2022-12-20T03:38:11.754Z,9.48
2022-12-20T03:40:41.501Z,8.83
2022-12-20T03:43:08.556Z,9.73
2022-12-20T03:45:37.468Z,9.79
2022-12-20T03:48:07.756Z,9.60
2022-12-20T03:50:49.162Z,8.93
2022-12-20T03:53:20.219Z,9.10
2022-12-20T03:55:49.741Z,9.90
2022-12-20T03:58:22.803Z,9.82
2022-12-20T04:00:52.768Z,9.44
2022-12-20T04:03:23.826Z,8.87
2022-12-20T04:05:51.238Z,9.56
2022-12-20T04:08:21.118Z,9.10
2022-12-20T04:10:48.074Z,9.52
2022-12-20T04:13:15.160Z,8.57
2022-12-20T04:15:45.340Z,8.73
2022-12-20T04:18:14.121Z,8.73
2022-12-20T04:20:47.877Z,8.86
2022-12-20T04:23:14.927Z,8.77
2022-12-20T04:25:43.927Z,8.48
2022-12-20T04:28:13.070Z,9.41
2022-12-20T04:30:40.131Z,10.00
2022-12-20T04:33:08.296Z,9.50
2022-12-20T04:35:37.735Z,9.08
2022-12-20T04:38:05.912Z,8.85
2022-12-20T04:40:38.031Z,9.49
2022-12-20T04:43:05.972Z,9.67
2022-12-20T04:45:37.021Z,8.77
2022-12-20T04:48:37.261Z,8.97
2022-12-20T04:50:56.971Z,9.52
2022-12-20T04:53:25.451Z,10.10
2022-12-20T04:55:57.853Z,10.07
2022-12-20T04:58:24.915Z,9.66
2022-12-20T05:00:51.752Z,9.46
2022-12-20T05:03:20.039Z,10.13
2022-12-20T05:05:47.817Z,10.07
2022-12-20T05:08:17.888Z,9.64
2022-12-20T05:10:54.753Z,9.46
2022-12-20T05:13:24.251Z,9.71
2022-12-20T05:15:57.076Z,8.84
2022-12-20T05:18:25.024Z,9.78
2022-12-20T05:21:03.773Z,10.21
2022-12-20T05:23:37.831Z,9.21
2022-12-20T05:26:10.307Z,9.78
2022-12-20T05:28:39.033Z,9.27
2022-12-20T05:31:08.122Z,9.06
2022-12-20T05:33:35.009Z,9.48
2022-12-20T05:36:01.780Z,9.92
2022-12-20T05:38:32.909Z,9.97
2022-12-20T05:40:59.785Z,10.22
2022-12-20T05:43:34.187Z,8.91
2022-12-20T05:46:04.140Z,9.82
2022-12-20T05:48:31.266Z,9.97
2022-12-20T05:50:59.470Z,10.24
2022-12-20T05:53:29.256Z,9.81
2022-12-20T05:56:03.705Z,9.34
2022-12-20T05:58:32.130Z,9.19
2022-12-20T06:01:09.981Z,9.63
2022-12-20T06:03:37.644Z,10.31
2022-12-20T06:06:14.125Z,9.12
2022-12-20T06:08:55.103Z,10.15
2022-12-20T06:11:29.841Z,10.42
2022-12-20T06:13:58.649Z,9.92
2022-12-20T06:16:32.767Z,9.40
2022-12-20T06:19:08.875Z,10.17
2022-12-20T06:21:40.102Z,10.19
2022-12-20T06:24:19.377Z,9.55
2022-12-20T06:26:48.481Z,9.43
2022-12-20T06:29:27.567Z,10.44
2022-12-20T06:32:03.088Z,9.44
2022-12-20T06:34:32.177Z,10.27
2022-12-20T06:36:59.527Z,10.33
2022-12-20T06:39:31.552Z,10.56
2022-12-20T06:42:06.833Z,10.26
2022-12-20T06:44:53.387Z,10.49
2022-12-20T06:47:20.215Z,9.49
2022-12-20T06:49:47.768Z,9.87
2022-12-20T06:52:17.639Z,10.56
2022-12-20T06:54:44.597Z,9.18
2022-12-20T06:57:11.401Z,10.10
2022-12-20T06:59:38.406Z,9.50
2022-12-20T07:02:08.116Z,10.45
2022-12-20T07:04:35.890Z,9.94
2022-12-20T07:07:04.413Z,9.45
2022-12-20T07:09:38.112Z,10.19
2022-12-20T07:12:05.385Z,9.34
2022-12-20T07:14:32.325Z,9.28
2022-12-20T07:16:59.232Z,9.74
2022-12-20T07:19:27.870Z,9.09
2022-12-20T07:21:57.123Z,10.02
2022-12-20T07:24:24.023Z,9.99
2022-12-20T07:26:54.477Z,9.28
2022-12-20T07:29:28.027Z,9.42
2022-12-20T07:31:55.040Z,9.72
2022-12-20T07:34:22.310Z,9.81
2022-12-20T07:36:58.350Z,10.27
2022-12-20T07:39:25.470Z,9.87
2022-12-20T07:41:56.141Z,10.59
2022-12-20T07:44:26.098Z,10.18
2022-12-20T07:47:12.710Z,10.53
2022-12-20T07:49:42.418Z,9.36
2022-12-20T07:52:13.954Z,9.34
2022-12-20T07:54:52.554Z,9.85
2022-12-20T07:57:23.927Z,9.49
2022-12-20T08:02:45.331Z,10.59
2022-12-20T08:05:23.710Z,10.38
2022-12-20T08:08:23.986Z,10.57
2022-12-20T08:10:53.611Z,10.04
2022-12-20T08:13:22.825Z,9.47
2022-12-20T08:15:50.171Z,9.44
2022-12-20T08:18:17.076Z,10.04
2022-12-20T08:20:44.061Z,9.90
2022-12-20T08:23:14.481Z,10.28
2022-12-20T08:25:42.459Z,10.21
2022-12-20T08:28:09.451Z,10.56
2022-12-20T08:30:36.376Z,9.34
2022-12-20T08:33:03.425Z,10.61
2022-12-20T08:35:30.213Z,10.73
2022-12-20T08:38:12.002Z,9.49
2022-12-20T08:40:41.912Z,10.48
2022-12-20T08:43:10.711Z,10.25
2022-12-20T08:46:04.282Z,9.68
2022-12-20T08:48:31.272Z,10.76
2022-12-20T08:51:00.156Z,10.69
2022-12-20T08:53:28.422Z,10.74
2022-12-20T08:56:04.171Z,10.39
2022-12-20T08:58:30.891Z,9.76
2022-12-20T09:01:03.045Z,10.28
2022-12-20T09:03:35.686Z,10.50
2022-12-20T09:06:08.093Z,10.83
2022-12-20T09:08:35.555Z,10.82
2022-12-20T09:11:09.769Z,9.68
2022-12-20T09:13:43.289Z,9.74
2022-12-20T09:16:11.141Z,10.90
2022-12-20T09:18:38.190Z,10.87
2022-12-20T09:21:07.185Z,10.94
2022-12-20T09:23:35.556Z,10.99
2022-12-20T09:26:03.148Z,10.75
2022-12-20T09:28:31.754Z,10.46
2022-12-20T09:30:59.268Z,10.99
2022-12-20T09:33:30.137Z,10.77
2022-12-20T09:35:57.853Z,10.99
2022-12-20T09:38:25.437Z,11.01
2022-12-20T09:40:55.210Z,10.97
2022-12-20T09:43:24.023Z,11.08
2022-12-20T09:45:55.847Z,10.88
2022-12-20T09:48:26.048Z,11.08
2022-12-20T09:51:08.379Z,10.43
2022-12-20T09:56:45.891Z,9.90
2022-12-20T09:59:18.133Z,11.04
2022-12-20T10:01:50.155Z,11.01
2022-12-20T10:04:22.515Z,10.28
2022-12-20T10:07:03.373Z,10.63
2022-12-20T10:09:52.509Z,9.85
2022-12-20T10:12:28.076Z,9.83
2022-12-20T10:15:13.947Z,10.99
2022-12-20T10:18:01.860Z,10.86
2022-12-20T10:20:43.978Z,10.57
2022-12-20T10:23:21.711Z,10.75
2022-12-20T10:25:55.232Z,10.65
2022-12-20T10:28:26.927Z,10.28
2022-12-20T10:30:55.146Z,10.51
2022-12-20T10:33:27.154Z,9.93
2022-12-20T10:35:54.134Z,10.34
2022-12-20T10:38:21.110Z,10.57
2022-12-20T10:41:20.711Z,11.08
2022-12-20T10:43:51.443Z,11.06
2022-12-20T10:46:23.154Z,11.10
2022-12-20T10:48:54.308Z,10.83
2022-12-20T10:51:24.309Z,9.90
2022-12-20T10:53:54.469Z,10.26
2022-12-20T10:56:23.679Z,10.26
2022-12-20T10:59:07.406Z,10.42
2022-12-20T11:01:39.616Z,11.03
2022-12-20T11:04:26.401Z,9.97
2022-12-20T11:06:53.698Z,10.99
2022-12-20T11:09:32.984Z,9.92
2022-12-20T11:12:06.169Z,10.99
2022-12-20T11:14:45.541Z,10.28
2022-12-20T11:17:28.440Z,10.96
2022-12-20T11:20:22.282Z,10.81
2022-12-20T11:22:57.107Z,10.52
2022-12-20T11:25:50.799Z,10.79
2022-12-20T11:28:38.531Z,10.02
2022-12-20T11:31:16.080Z,10.63
2022-12-20T11:33:59.584Z,10.90
2022-12-20T11:36:41.379Z,10.97
2022-12-20T11:39:14.994Z,10.26
2022-12-20T11:41:56.828Z,9.84
2022-12-20T11:44:28.854Z,10.15
2022-12-20T11:47:16.043Z,10.94
2022-12-20T11:50:01.315Z,10.71
2022-12-20T11:52:38.925Z,10.78
2022-12-20T11:55:17.964Z,10.82
2022-12-20T11:58:17.345Z,10.93
2022-12-20T12:00:46.362Z,10.96
2022-12-20T12:03:19.138Z,10.96
2022-12-20T12:05:48.813Z,10.87
2022-12-20T12:08:22.652Z,10.83
2022-12-20T12:10:57.995Z,10.88
2022-12-20T12:13:28.565Z,10.79
2022-12-20T12:16:01.785Z,10.85
2022-12-20T12:18:31.520Z,10.85
2022-12-20T12:21:08.888Z,10.68
2022-12-20T12:23:45.399Z,10.85
2022-12-20T12:26:18.854Z,10.87
2022-12-20T12:28:52.654Z,10.81
2022-12-20T12:31:26.752Z,10.80
2022-12-20T12:34:05.553Z,10.82
2022-12-20T12:37:01.770Z,10.70
2022-12-20T12:39:58.949Z,10.58
2022-12-20T12:42:58.248Z,10.77
2022-12-20T12:45:28.149Z,10.75
2022-12-20T12:48:00.648Z,10.82
2022-12-20T12:50:31.191Z,10.68
2022-12-20T12:53:05.325Z,10.70
2022-12-20T12:55:41.263Z,10.90
2022-12-20T12:58:29.914Z,10.91
2022-12-20T13:00:58.188Z,10.75
2022-12-20T13:04:09.591Z,10.92
2022-12-20T13:07:23.998Z,10.84
2022-12-20T13:09:52.125Z,10.93
2022-12-20T13:12:54.545Z,10.91
2022-12-20T13:16:11.015Z,10.91
2022-12-20T13:19:00.758Z,10.19
2022-12-20T13:22:19.390Z,10.59
2022-12-20T13:25:04.286Z,10.56
2022-12-20T13:27:37.245Z,10.53
2022-12-20T13:30:40.346Z,10.98
2022-12-20T13:33:46.142Z,10.94
2022-12-20T13:36:40.311Z,9.66
2022-12-20T13:39:32.853Z,10.96
2022-12-20T13:42:19.605Z,10.86
2022-12-20T13:44:47.803Z,11.02
2022-12-20T13:47:31.097Z,11.07
2022-12-20T13:50:01.360Z,10.82
2022-12-20T13:52:31.190Z,10.73
2022-12-20T13:55:02.587Z,10.40
2022-12-20T13:57:32.430Z,10.99
2022-12-20T14:00:14.400Z,10.94
2022-12-20T14:02:42.546Z,10.91
2022-12-20T14:05:18.909Z,11.07
2022-12-20T14:07:47.823Z,10.93
2022-12-20T14:10:19.284Z,10.91
2022-12-20T14:12:47.444Z,10.99
2022-12-20T14:15:26.535Z,11.00
2022-12-20T14:17:54.294Z,11.07
2022-12-20T14:20:25.382Z,11.03
2022-12-20T14:25:52.249Z,11.02
2022-12-20T14:28:29.821Z,11.05
2022-12-20T14:30:58.687Z,11.03
2022-12-20T14:33:30.874Z,11.07
2022-12-20T14:35:58.097Z,10.95
2022-12-20T14:38:29.848Z,11.06
2022-12-20T14:40:56.630Z,10.45
2022-12-20T14:43:28.153Z,10.86
2022-12-20T14:46:19.142Z,10.86
2022-12-20T14:48:47.420Z,10.94
2022-12-20T14:51:21.275Z,11.00
2022-12-20T14:53:50.476Z,10.83
2022-12-20T14:56:23.802Z,10.90
2022-12-20T14:59:13.234Z,10.98
2022-12-20T15:01:43.976Z,10.96
2022-12-20T15:04:21.858Z,10.86
2022-12-20T15:06:50.406Z,10.72
2022-12-20T15:09:17.330Z,10.93
2022-12-20T15:11:45.938Z,10.77
2022-12-20T15:14:25.449Z,10.92
2022-12-20T15:16:53.208Z,10.91
2022-12-20T15:19:20.195Z,10.94
2022-12-20T15:21:47.275Z,10.84
2022-12-20T15:24:15.803Z,10.27
2022-12-20T15:26:42.801Z,10.92
2022-12-20T15:29:16.412Z,10.86
2022-12-20T15:31:46.350Z,10.78
2022-12-20T15:34:15.508Z,10.89
2022-12-20T15:36:42.827Z,10.88
2022-12-20T15:39:13.530Z,10.77
2022-12-20T15:41:43.046Z,10.90
2022-12-20T15:44:14.041Z,10.85
2022-12-20T15:46:40.916Z,10.82
2022-12-20T15:49:14.226Z,10.78
2022-12-20T15:51:42.201Z,10.52
2022-12-20T15:54:24.443Z,10.74
2022-12-20T15:56:51.511Z,10.79
2022-12-20T15:59:57.769Z,10.76
2022-12-20T16:02:18.402Z,10.70
2022-12-20T16:04:46.630Z,10.56
2022-12-20T16:07:15.755Z,10.65
2022-12-20T16:09:42.976Z,10.57
2022-12-20T16:12:15.460Z,10.30
2022-12-20T16:14:42.202Z,10.50
2022-12-20T16:17:14.776Z,10.68
2022-12-20T16:19:41.547Z,10.47
2022-12-20T16:22:18.433Z,10.66
2022-12-20T16:24:45.688Z,9.67
2022-12-20T16:27:13.028Z,9.55
2022-12-20T16:29:40.529Z,10.23
2022-12-20T16:32:35.013Z,10.62
2022-12-20T16:35:04.841Z,10.17
2022-12-20T16:37:37.277Z,9.69
2022-12-20T16:40:11.727Z,9.57
2022-12-20T16:42:38.753Z,10.60
2022-12-20T16:45:31.143Z,10.60
2022-12-20T16:47:58.490Z,10.09
2022-12-20T16:50:38.169Z,10.27
2022-12-20T16:53:21.607Z,9.83
2022-12-20T16:56:03.734Z,9.35
2022-12-20T16:59:16.783Z,10.57
2022-12-20T17:01:25.420Z,10.09
2022-12-20T17:03:55.037Z,10.22
2022-12-20T17:06:22.189Z,9.38
2022-12-20T17:08:53.116Z,10.54
2022-12-20T17:11:29.518Z,10.54
2022-12-20T17:14:00.875Z,10.58
2022-12-20T17:16:27.876Z,10.53
2022-12-20T17:18:56.498Z,9.38
2022-12-20T17:21:29.737Z,10.51
2022-12-20T17:24:02.668Z,10.03
2022-12-20T17:26:34.969Z,9.75
2022-12-20T17:29:01.838Z,10.10
2022-12-20T17:31:33.675Z,9.66
2022-12-20T17:34:02.918Z,9.96
2022-12-20T17:36:37.663Z,10.28
2022-12-20T17:39:24.850Z,10.02
2022-12-20T17:41:52.349Z,10.08
2022-12-20T17:44:24.125Z,10.53
2022-12-20T17:46:59.942Z,10.21
2022-12-20T17:49:30.309Z,9.33
2022-12-20T17:52:08.213Z,10.29
2022-12-20T17:54:40.441Z,10.50
2022-12-20T17:57:13.422Z,9.37
2022-12-20T17:59:40.354Z,10.15
2022-12-20T18:02:19.891Z,10.50
2022-12-20T18:04:46.975Z,10.48
2022-12-20T18:07:16.596Z,10.39
2022-12-20T18:09:51.405Z,9.22
2022-12-20T18:12:18.442Z,9.21
2022-12-20T18:14:48.023Z,10.10
2022-12-20T18:17:17.964Z,10.35
2022-12-20T18:19:45.179Z,9.82
2022-12-20T18:22:13.885Z,10.12
2022-12-20T18:24:41.125Z,10.31
2022-12-20T18:27:11.436Z,9.62
2022-12-20T18:29:38.484Z,10.17
2022-12-20T18:32:11.312Z,9.16
2022-12-20T18:34:38.192Z,9.19
2022-12-20T18:37:33.700Z,9.05
2022-12-20T18:40:03.640Z,10.25
2022-12-20T18:42:32.189Z,10.13
2022-12-20T18:45:00.230Z,10.22
2022-12-20T18:47:29.885Z,9.43
2022-12-20T18:50:04.790Z,9.11
2022-12-20T18:52:32.998Z,9.43
2022-12-20T18:55:04.331Z,9.82
2022-12-20T18:57:32.955Z,8.80
2022-12-20T19:00:00.144Z,9.12
2022-12-20T19:02:29.585Z,9.68
2022-12-20T19:04:56.978Z,9.21
2022-12-20T19:07:25.226Z,9.36
2022-12-20T19:09:55.544Z,9.63
2022-12-20T19:12:25.647Z,8.83
2022-12-20T19:14:56.714Z,9.62
2022-12-20T19:17:27.376Z,10.07
2022-12-20T19:19:54.804Z,9.63
2022-12-20T19:22:24.383Z,8.97
2022-12-20T19:24:53.486Z,10.06
2022-12-20T19:27:28.629Z,8.76
2022-12-20T19:30:18.504Z,9.99
2022-12-20T19:32:51.310Z,9.65
2022-12-20T19:35:53.653Z,9.69
2022-12-20T19:38:05.495Z,9.65
2022-12-20T19:40:36.404Z,9.32
2022-12-20T19:43:03.306Z,9.44
2022-12-20T19:45:37.689Z,9.75
2022-12-20T19:48:10.931Z,8.74
2022-12-20T19:50:37.950Z,9.20
2022-12-20T19:53:10.583Z,9.77
2022-12-20T19:55:40.678Z,8.73
2022-12-20T19:58:07.708Z,9.38
2022-12-20T20:00:48.607Z,9.12
2022-12-20T20:03:16.258Z,8.55
2022-12-20T20:05:49.474Z,8.80
2022-12-20T20:08:24.198Z,8.61
2022-12-20T20:11:07.124Z,8.85
2022-12-20T20:13:42.856Z,8.82
2022-12-20T20:16:22.280Z,9.74
2022-12-20T20:18:50.669Z,9.69
2022-12-20T20:21:20.273Z,8.39
2022-12-20T20:24:02.285Z,8.77
2022-12-20T20:26:31.648Z,9.22
2022-12-20T20:29:00.515Z,8.96
2022-12-20T20:31:31.929Z,9.61
2022-12-20T20:34:02.454Z,8.75
2022-12-20T20:36:30.040Z,8.25
2022-12-20T20:38:56.953Z,8.48
2022-12-20T20:41:26.455Z,9.20
2022-12-20T20:43:57.799Z,8.23
2022-12-20T20:46:27.604Z,9.46
2022-12-20T20:48:56.807Z,9.02
2022-12-20T20:51:27.917Z,9.45
2022-12-20T20:54:01.659Z,9.08
2022-12-20T20:56:31.055Z,9.38
2022-12-20T20:59:07.021Z,8.52
2022-12-20T21:02:08.535Z,8.61
2022-12-20T21:05:52.448Z,8.05
2022-12-20T21:08:00.344Z,8.02
2022-12-20T21:11:06.872Z,8.02
2022-12-20T21:13:45.868Z,9.15
2022-12-20T21:16:26.540Z,8.15
2022-12-20T21:18:55.338Z,8.10
2022-12-20T21:21:31.441Z,8.13
2022-12-20T21:24:09.462Z,9.27
2022-12-20T21:27:10.064Z,8.95
2022-12-20T21:29:50.535Z,8.55
2022-12-20T21:32:19.895Z,8.61
2022-12-20T21:37:46.874Z,9.23
2022-12-20T21:40:25.361Z,7.94
2022-12-20T21:42:55.323Z,8.16
2022-12-20T21:45:25.432Z,9.20
2022-12-20T21:48:03.394Z,8.28
2022-12-20T21:50:33.918Z,9.18
2022-12-20T21:53:19.455Z,7.86
2022-12-20T21:55:46.721Z,8.89
2022-12-20T21:58:15.725Z,9.00
2022-12-20T22:00:50.921Z,8.70
2022-12-20T22:03:24.482Z,7.87
2022-12-20T22:05:57.146Z,8.81
2022-12-20T22:08:33.094Z,8.82
2022-12-20T22:11:00.787Z,8.61
2022-12-20T22:13:41.241Z,8.64
2022-12-20T22:16:18.254Z,9.08
2022-12-20T22:18:50.401Z,8.83
2022-12-20T22:21:22.722Z,7.82
2022-12-20T22:23:54.297Z,7.90
2022-12-20T22:26:28.002Z,8.01
2022-12-20T22:29:01.213Z,9.00
2022-12-20T22:31:33.434Z,8.39
2022-12-20T22:34:11.121Z,8.07
2022-12-20T22:36:41.231Z,7.58
2022-12-20T22:39:16.195Z,8.26
2022-12-20T22:41:45.901Z,8.44
2022-12-20T22:44:16.209Z,8.68
2022-12-20T22:46:43.149Z,8.05
2022-12-20T22:49:16.621Z,7.69
2022-12-20T22:51:59.323Z,8.63
2022-12-20T22:54:33.641Z,8.01
2022-12-20T22:57:00.726Z,8.34
2022-12-20T22:59:40.478Z,7.45
2022-12-20T23:02:07.619Z,7.40
2022-12-20T23:04:46.276Z,7.69
2022-12-20T23:07:19.459Z,8.04
2022-12-20T23:09:52.472Z,8.55
2022-12-20T23:12:20.217Z,8.45
2022-12-20T23:14:51.277Z,7.56
2022-12-20T23:17:20.747Z,8.17
2022-12-20T23:19:53.549Z,7.11
2022-12-20T23:22:24.078Z,7.07
2022-12-20T23:24:55.586Z,7.87
2022-12-20T23:27:26.100Z,7.98
2022-12-20T23:29:53.276Z,8.23
2022-12-20T23:32:26.685Z,8.20
2022-12-20T23:34:55.268Z,7.28
2022-12-20T23:37:23.203Z,7.00
2022-12-20T23:40:14.127Z,7.39
2022-12-20T23:43:06.284Z,8.11
2022-12-20T23:45:55.518Z,6.95
2022-12-20T23:48:34.438Z,7.97
2022-12-20T23:51:09.807Z,6.69
2022-12-20T23:53:45.327Z,6.59
2022-12-20T23:56:25.535Z,7.17
2022-12-20T23:59:08.721Z,6.66
